Time;durP1;ratioP1;P1;durP2;ratioP2;P2;SDS_P1;SDS_P2;PMS_P1;PMS_P2;Temp;Humidity;BMP_temperature;BMP_pressure;BME280_temperature;BME280_humidity;BME280_pressure;Samples;Min_cycle;Max_cycle;Signal;HPM_P1;HPM_P2
2023/10/25 00:00:17;;;;;;;;;;;;;;;;;;5016286;28;4696;-68
2023/10/25 00:02:42;;;;;;;;;;;;;;;;;;5022143;28;1103;-67
2023/10/25 00:05:44;;;;;;;;;;;;;;;;;;5009570;28;4945;-68
2023/10/25 00:11:12;;;;;;;;;;;;;;;;;;5035607;28;5134;-68
2023/10/25 00:13:37;;;;;;;;;;;;;;;;;;5027658;28;4754;-67
2023/10/25 00:16:03;;;;;;;;;;;;;;;;;;5013242;28;4625;-68
2023/10/25 00:18:28;;;;;;;;;;;;;;;;;;5013102;28;4885;-68
2023/10/25 00:20:54;;;;;;;;;;;;;;;;;;5012824;28;4985;-67
2023/10/25 00:23:19;;;;;;;;;;;;;;;;;;5010706;28;1106;-67
2023/10/25 00:25:48;;;;;;;;;;;;;;;;;;5011346;28;4988;-67
2023/10/25 00:28:47;;;;;;;;;;;;;;;;;;5015694;28;4902;-68
2023/10/25 00:31:19;;;;;;;;;;;;;;;;;;5007942;28;4436;-68
2023/10/25 00:33:46;;;;;;;;;;;;;;;;;;5013470;28;5052;-68
2023/10/25 00:39:20;;;;;;;;;;;;;;;;;;5012110;28;4673;-68
2023/10/25 00:47:51;;;;;;;;;;;;;;;;;;5010159;28;4471;-62
2023/10/25 00:56:24;;;;;;;;;;;;;;;;;;5032829;28;4562;-66
2023/10/25 00:58:50;;;;;;;;;;;;;;;;;;5015974;28;5142;-67
2023/10/25 01:01:15;;;;;;;;;;;;;;;;;;5028069;28;5050;-65
2023/10/25 01:04:07;;;;;;;;;;;;;;;;;;5027408;28;5215;-67
2023/10/25 01:06:55;;;;;;;;;;;;;;;;;;5009968;28;5045;-67
2023/10/25 01:09:21;;;;;;;;;;;;;;;;;;5027056;28;4650;-67
2023/10/25 01:11:46;;;;;;;;;;;;;;;;;;5033391;28;1409;-67
2023/10/25 01:14:12;;;;;;;;;;;;;;;;;;5019893;28;4442;-66
2023/10/25 01:17:00;;;;;;;;;;;;;;;;;;5012702;28;5051;-67
2023/10/25 01:19:25;;;;;;;;;;;;;;;;;;5016357;28;5059;-66
2023/10/25 01:21:51;;;;;;;;;;;;;;;;;;5003657;28;4646;-65
2023/10/25 01:24:17;;;;;;;;;;;;;;;;;;5013285;28;5102;-66
2023/10/25 01:26:42;;;;;;;;;;;;;;;;;;5023251;28;1338;-66
2023/10/25 01:29:07;;;;;;;;;;;;;;;;;;5044925;28;4762;-65
2023/10/25 01:31:32;;;;;;;;;;;;;;;;;;5032129;28;4437;-66
2023/10/25 01:33:59;;;;;;;;;;;;;;;;;;5014484;28;5085;-66
2023/10/25 01:36:24;;;;;;;;;;;;;;;;;;5034053;28;4694;-66
2023/10/25 01:38:49;;;;;;;;;;;;;;;;;;5013356;28;5085;-65
2023/10/25 01:41:17;;;;;;;;;;;;;;;;;;5013191;28;1140;-67
2023/10/25 01:47:12;;;;;;;;;;;;;;;;;;5026556;28;4903;-67
2023/10/25 01:52:40;;;;;;;;;;;;;;;;;;5014767;28;4850;-67
2023/10/25 02:07:16;;;;;;;;;;;;;;;;;;5016468;28;4617;-66
2023/10/25 02:09:42;;;;;;;;;;;;;;;;;;5017238;28;4521;-67
2023/10/25 02:12:07;;;;;;;;;;;;;;;;;;5027873;28;4642;-66
2023/10/25 02:14:48;;;;;;;;;;;;;;;;;;5012136;28;1369;-66
2023/10/25 02:17:13;;;;;;;;;;;;;;;;;;5014073;28;4417;-67
2023/10/25 02:19:39;;;;;;;;;;;;;;;;;;5013970;28;4470;-67
2023/10/25 02:22:05;;;;;;;;;;;;;;;;;;5005884;28;5009;-66
2023/10/25 02:24:30;;;;;;;;;;;;;;;;;;5016329;28;5061;-67
2023/10/25 02:26:56;;;;;;;;;;;;;;;;;;5020629;28;4507;-66
2023/10/25 02:29:22;;;;;;;;;;;;;;;;;;5015555;28;1339;-67
2023/10/25 02:31:47;;;;;;;;;;;;;;;;;;5025993;28;5084;-66
2023/10/25 02:34:13;;;;;;;;;;;;;;;;;;5011462;28;4966;-66
2023/10/25 02:36:38;;;;;;;;;;;;;;;;;;5010723;28;4617;-66
2023/10/25 02:39:03;;;;;;;;;;;;;;;;;;5016996;28;4948;-66
2023/10/25 02:41:28;;;;;;;;;;;;;;;;;;5034886;28;986;-67
2023/10/25 02:43:54;;;;;;;;;;;;;;;;;;5028499;28;4528;-67
2023/10/25 02:46:20;;;;;;;;;;;;;;;;;;5011171;28;4985;-63
2023/10/25 02:48:45;;;;;;;;;;;;;;;;;;5012351;28;5153;-66
2023/10/25 02:51:10;;;;;;;;;;;;;;;;;;5014792;28;5156;-66
2023/10/25 02:53:36;;;;;;;;;;;;;;;;;;5031944;28;1169;-67
2023/10/25 02:56:02;;;;;;;;;;;;;;;;;;5013697;28;5058;-66
2023/10/25 02:58:27;;;;;;;;;;;;;;;;;;4996459;28;5009;-67
2023/10/25 03:00:53;;;;;;;;;;;;;;;;;;5031909;28;4997;-66
2023/10/25 03:06:33;;;;;;;;;;;;;;;;;;5013546;28;4996;-64
2023/10/25 03:25:39;;;;;;;;;;;;;;;;;;5013451;28;5086;-67
2023/10/25 03:28:11;;;;;;;;;;;;;;;;;;5012570;28;5034;-65
2023/10/25 03:30:37;;;;;;;;;;;;;;;;;;5011973;28;4969;-67
2023/10/25 03:33:02;;;;;;;;;;;;;;;;;;5013384;28;5129;-67
2023/10/25 03:35:28;;;;;;;;;;;;;;;;;;5016908;28;1087;-67
2023/10/25 03:37:54;;;;;;;;;;;;;;;;;;5022807;28;4452;-66
2023/10/25 03:40:19;;;;;;;;;;;;;;;;;;5014487;28;4478;-67
2023/10/25 03:45:47;;;;;;;;;;;;;;;;;;5055539;28;4469;-68
2023/10/25 03:48:12;;;;;;;;;;;;;;;;;;5055479;28;4438;-66
2023/10/25 03:50:38;;;;;;;;;;;;;;;;;;5044791;28;1133;-66
2023/10/25 03:53:04;;;;;;;;;;;;;;;;;;5032935;28;5185;-67
2023/10/25 03:58:51;;;;;;;;;;;;;;;;;;5033663;28;4499;-66
2023/10/25 04:01:28;;;;;;;;;;;;;;;;;;5020451;28;4646;-67
2023/10/25 04:03:54;;;;;;;;;;;;;;;;;;5013895;28;4989;-67
2023/10/25 04:06:19;;;;;;;;;;;;;;;;;;5013483;28;5027;-67
2023/10/25 04:08:44;;;;;;;;;;;;;;;;;;5029535;28;2090;-67
2023/10/25 04:14:20;;;;;;;;;;;;;;;;;;5010963;28;4896;-67
2023/10/25 04:19:51;;;;;;;;;;;;;;;;;;5027987;28;5034;-68
2023/10/25 04:22:29;;;;;;;;;;;;;;;;;;5016392;28;5099;-68
2023/10/25 04:24:54;;;;;;;;;;;;;;;;;;5013703;28;5053;-67
2023/10/25 04:27:19;;;;;;;;;;;;;;;;;;5014295;28;5036;-68
2023/10/25 04:32:54;;;;;;;;;;;;;;;;;;5021182;28;4961;-67
2023/10/25 04:35:43;;;;;;;;;;;;;;;;;;5028358;28;1357;-68
2023/10/25 04:38:09;;;;;;;;;;;;;;;;;;5010675;28;4788;-67
2023/10/25 04:40:34;;;;;;;;;;;;;;;;;;5018417;28;4925;-67
2023/10/25 04:43:00;;;;;;;;;;;;;;;;;;5030640;28;4534;-67
2023/10/25 04:45:25;;;;;;;;;;;;;;;;;;5006136;28;4867;-67
2023/10/25 04:47:51;;;;;;;;;;;;;;;;;;5008334;28;4651;-66
2023/10/25 04:50:17;;;;;;;;;;;;;;;;;;5043886;28;1137;-66
2023/10/25 04:52:42;;;;;;;;;;;;;;;;;;5036631;28;5096;-67
2023/10/25 04:55:08;;;;;;;;;;;;;;;;;;5015969;28;4632;-62
2023/10/25 04:57:34;;;;;;;;;;;;;;;;;;5008458;28;5137;-66
2023/10/25 04:59:59;;;;;;;;;;;;;;;;;;4997481;28;5037;-66
2023/10/25 05:02:25;;;;;;;;;;;;;;;;;;5014555;28;1054;-67
2023/10/25 05:04:50;;;;;;;;;;;;;;;;;;5024643;28;5037;-67
2023/10/25 05:07:15;;;;;;;;;;;;;;;;;;5023761;28;5041;-66
2023/10/25 05:09:41;;;;;;;;;;;;;;;;;;5018588;28;4716;-67
2023/10/25 05:12:07;;;;;;;;;;;;;;;;;;5010548;28;5364;-67
2023/10/25 05:17:37;;;;;;;;;;;;;;;;;;5027642;28;5588;-67
2023/10/25 05:20:04;;;;;;;;;;;;;;;;;;5014066;28;5044;-67
2023/10/25 05:22:30;;;;;;;;;;;;;;;;;;4993897;28;5006;-67
2023/10/25 05:24:55;;;;;;;;;;;;;;;;;;5008188;28;5038;-66
2023/10/25 05:30:21;;;;;;;;;;;;;;;;;;5007506;28;5005;-67
2023/10/25 05:32:46;;;;;;;;;;;;;;;;;;5004371;28;1195;-67
2023/10/25 05:35:12;;;;;;;;;;;;;;;;;;5022847;28;4609;-67
2023/10/25 05:37:37;;;;;;;;;;;;;;;;;;5006204;28;4455;-66
2023/10/25 05:40:04;;;;;;;;;;;;;;;;;;5013950;28;5000;-67
2023/10/25 05:42:29;;;;;;;;;;;;;;;;;;5015837;28;5340;-51
2023/10/25 05:44:55;;;;;;;;;;;;;;;;;;5022999;28;4672;-52
2023/10/25 05:50:23;;;;;;;;;;;;;;;;;;5018761;28;4768;-49
2023/10/25 05:52:49;;;;;;;;;;;;;;;;;;5017537;28;4981;-48
2023/10/25 05:55:14;;;;;;;;;;;;;;;;;;5017570;28;4450;-51
2023/10/25 05:57:40;;;;;;;;;;;;;;;;;;5017256;28;4536;-50
2023/10/25 06:03:08;;;;;;;;;;;;;;;;;;5017231;28;4947;-49
2023/10/25 06:05:36;;;;;;;;;;;;;;;;;;5022933;28;1201;-48
2023/10/25 06:08:01;;;;;;;;;;;;;;;;;;5036870;28;4949;-50
2023/10/25 06:10:27;;;;;;;;;;;;;;;;;;5036676;28;4980;-47
2023/10/25 06:12:52;;;;;;;;;;;;;;;;;;5031705;28;4974;-50
2023/10/25 06:15:17;;;;;;;;;;;;;;;;;;5013570;28;4881;-54
2023/10/25 06:17:42;;;;;;;;;;;;;;;;;;5014690;28;1976;-52
2023/10/25 06:20:20;;;;;;;;;;;;;;;;;;5017290;28;5174;-52
2023/10/25 06:22:45;;;;;;;;;;;;;;;;;;5017738;28;5510;-51
2023/10/25 06:25:11;;;;;;;;;;;;;;;;;;5012631;28;5031;-49
2023/10/25 06:27:36;;;;;;;;;;;;;;;;;;5012424;28;5078;-49
2023/10/25 06:30:01;;;;;;;;;;;;;;;;;;5012351;28;6181;-52
2023/10/25 06:32:27;;;;;;;;;;;;;;;;;;5016477;28;1296;-55
2023/10/25 06:34:52;;;;;;;;;;;;;;;;;;5009822;28;4984;-55
2023/10/25 06:37:17;;;;;;;;;;;;;;;;;;5007937;28;5078;-54
2023/10/25 06:39:43;;;;;;;;;;;;;;;;;;5011514;28;4648;-56
2023/10/25 06:42:08;;;;;;;;;;;;;;;;;;5014846;28;4641;-56
2023/10/25 06:44:34;;;;;;;;;;;;;;;;;;5013504;28;957;-61
2023/10/25 06:47:16;;;;;;;;;;;;;;;;;;5008760;28;5043;-60
2023/10/25 06:52:44;;;;;;;;;;;;;;;;;;5021549;28;5000;-59
2023/10/25 07:04:19;;;;;;;;;;;;;;;;;;5020124;28;5125;-58
2023/10/25 07:07:11;;;;;;;;;;;;;;;;;;5026605;28;5000;-58
2023/10/25 07:09:36;;;;;;;;;;;;;;;;;;5010855;28;5211;-59
2023/10/25 07:12:01;;;;;;;;;;;;;;;;;;5012527;28;4632;-58
2023/10/25 07:14:27;;;;;;;;;;;;;;;;;;5023423;28;1408;-61
2023/10/25 07:16:52;;;;;;;;;;;;;;;;;;5001197;28;4858;-58
2023/10/25 07:19:18;;;;;;;;;;;;;;;;;;5010299;28;4657;-57
2023/10/25 07:21:43;;;;;;;;;;;;;;;;;;5015978;28;4623;-58
2023/10/25 07:24:08;;;;;;;;;;;;;;;;;;5025157;28;5220;-59
2023/10/25 07:27:10;;;;;;;;;;;;;;;;;;5015569;28;974;-58
2023/10/25 07:29:36;;;;;;;;;;;;;;;;;;5003028;28;4770;-59
2023/10/25 07:32:05;;;;;;;;;;;;;;;;;;5011373;28;5009;-59
2023/10/25 07:34:47;;;;;;;;;;;;;;;;;;5023317;28;4669;-58
2023/10/25 07:37:12;;;;;;;;;;;;;;;;;;5015730;28;4545;-59
2023/10/25 07:39:37;;;;;;;;;;;;;;;;;;5031187;28;5048;-59
2023/10/25 07:42:21;;;;;;;;;;;;;;;;;;5030720;28;5117;-58
2023/10/25 07:44:59;;;;;;;;;;;;;;;;;;5015268;28;1097;-59
2023/10/25 07:47:25;;;;;;;;;;;;;;;;;;5018157;28;4936;-58
2023/10/25 07:49:51;;;;;;;;;;;;;;;;;;5030311;28;4933;-59
2023/10/25 07:55:19;;;;;;;;;;;;;;;;;;5014004;28;4597;-58
2023/10/25 07:57:44;;;;;;;;;;;;;;;;;;5011572;28;5121;-59
2023/10/25 08:00:09;;;;;;;;;;;;;;;;;;5012737;28;4860;-59
2023/10/25 08:02:35;;;;;;;;;;;;;;;;;;5028509;28;1305;-59
2023/10/25 08:05:01;;;;;;;;;;;;;;;;;;5023752;28;4971;-58
2023/10/25 08:07:26;;;;;;;;;;;;;;;;;;5030965;28;5250;-59
2023/10/25 08:09:52;;;;;;;;;;;;;;;;;;5032450;28;5069;-59
2023/10/25 08:12:20;;;;;;;;;;;;;;;;;;5003871;28;4914;-58
2023/10/25 08:14:45;;;;;;;;;;;;;;;;;;5034278;28;1075;-59
2023/10/25 08:17:10;;;;;;;;;;;;;;;;;;5034593;28;4889;-58
2023/10/25 08:19:36;;;;;;;;;;;;;;;;;;5034314;28;5621;-59
2023/10/25 08:22:02;;;;;;;;;;;;;;;;;;5020225;28;5137;-58
2023/10/25 08:24:28;;;;;;;;;;;;;;;;;;5036118;28;5011;-58
2023/10/25 08:26:55;;;;;;;;;;;;;;;;;;5024272;28;4639;-61
2023/10/25 08:29:20;;;;;;;;;;;;;;;;;;5045972;28;4536;-59
2023/10/25 08:34:43;;;;;;;;;;;;;;;;;;5021600;28;4489;-59
2023/10/25 08:37:08;;;;;;;;;;;;;;;;;;5034609;28;4966;-59
2023/10/25 08:39:33;;;;;;;;;;;;;;;;;;5019322;28;5138;-59
2023/10/25 08:41:59;;;;;;;;;;;;;;;;;;5018991;28;4709;-59
2023/10/25 08:44:24;;;;;;;;;;;;;;;;;;4997452;28;1108;-59
2023/10/25 08:46:49;;;;;;;;;;;;;;;;;;5028225;28;5430;-59
2023/10/25 08:49:45;;;;;;;;;;;;;;;;;;5031642;28;4456;-58
2023/10/25 08:52:21;;;;;;;;;;;;;;;;;;5033289;28;5069;-58
2023/10/25 09:00:58;;;;;;;;;;;;;;;;;;5022334;28;4982;-61
2023/10/25 09:06:26;;;;;;;;;;;;;;;;;;5012730;28;5105;-59
2023/10/25 09:08:59;;;;;;;;;;;;;;;;;;5033903;28;4534;-59
2023/10/25 09:14:45;;;;;;;;;;;;;;;;;;5020514;28;4753;-68
2023/10/25 09:17:10;;;;;;;;;;;;;;;;;;5006949;28;5081;-70
2023/10/25 09:19:36;;;;;;;;;;;;;;;;;;5019953;28;5064;-71
2023/10/25 09:22:32;;;;;;;;;;;;;;;;;;5028073;28;4728;-62
2023/10/25 09:24:58;;;;;;;;;;;;;;;;;;5015503;28;4458;-64
2023/10/25 09:27:24;;;;;;;;;;;;;;;;;;5017987;28;5037;-64
2023/10/25 09:32:52;;;;;;;;;;;;;;;;;;5017800;28;5045;-66
2023/10/25 09:35:18;;;;;;;;;;;;;;;;;;5015353;28;1007;-65
2023/10/25 09:46:42;;;;;;;;;;;;;;;;;;5011303;28;5180;-62
2023/10/25 09:49:08;;;;;;;;;;;;;;;;;;5000062;28;5136;-62
2023/10/25 09:51:37;;;;;;;;;;;;;;;;;;5021121;28;5186;-62
2023/10/25 09:54:35;;;;;;;;;;;;;;;;;;5038006;28;5031;-62
2023/10/25 09:57:02;;;;;;;;;;;;;;;;;;5030696;28;4777;-64
2023/10/25 09:59:30;;;;;;;;;;;;;;;;;;5009789;28;2626;-62
2023/10/25 10:01:55;;;;;;;;;;;;;;;;;;5015912;28;4465;-75
2023/10/25 10:22:35;;;;;;;;;;;;;;;;;;5028849;28;5041;-61
2023/10/25 10:25:04;;;;;;;;;;;;;;;;;;5013441;28;4495;-62
2023/10/25 10:27:41;;;;;;;;;;;;;;;;;;5017002;28;4517;-62
2023/10/25 10:36:53;;;;;;;;;;;;;;;;;;5013089;28;5023;-60
2023/10/25 10:42:21;;;;;;;;;;;;;;;;;;5014653;28;4687;-61
2023/10/25 10:47:39;;;;;;;;;;;;;;;;;;5028240;28;5114;-60
2023/10/25 10:50:09;;;;;;;;;;;;;;;;;;5013487;28;5207;-61
2023/10/25 10:52:34;;;;;;;;;;;;;;;;;;5014182;28;4540;-61
2023/10/25 10:55:00;;;;;;;;;;;;;;;;;;5035304;28;5022;-61
2023/10/25 10:57:25;;;;;;;;;;;;;;;;;;5016217;28;5056;-60
2023/10/25 10:59:50;;;;;;;;;;;;;;;;;;5010122;28;4773;-63
2023/10/25 11:02:16;;;;;;;;;;;;;;;;;;4991675;28;3000;-63
2023/10/25 11:04:41;;;;;;;;;;;;;;;;;;4991186;28;5077;-63
2023/10/25 11:07:07;;;;;;;;;;;;;;;;;;5016810;28;5039;-62
2023/10/25 11:09:32;;;;;;;;;;;;;;;;;;5011543;28;5071;-63
2023/10/25 11:12:07;;;;;;;;;;;;;;;;;;5004320;28;4920;-63
2023/10/25 11:18:21;;;;;;;;;;;;;;;;;;5007898;28;4937;-62
2023/10/25 11:21:21;;;;;;;;;;;;;;;;;;5012995;28;1119;-63
2023/10/25 11:23:52;;;;;;;;;;;;;;;;;;5015155;28;5133;-63
2023/10/25 11:26:18;;;;;;;;;;;;;;;;;;5040904;28;1034;-62
2023/10/25 11:28:43;;;;;;;;;;;;;;;;;;5017885;28;4519;-63
2023/10/25 11:31:09;;;;;;;;;;;;;;;;;;5009828;28;4761;-63
2023/10/25 11:33:44;;;;;;;;;;;;;;;;;;5028928;28;5074;-63
2023/10/25 11:36:11;;;;;;;;;;;;;;;;;;5021185;28;4809;-63
2023/10/25 11:38:40;;;;;;;;;;;;;;;;;;5026516;28;3263;-63
2023/10/25 11:41:06;;;;;;;;;;;;;;;;;;5026946;28;5073;-62
2023/10/25 11:43:31;;;;;;;;;;;;;;;;;;4990211;28;5076;-62
2023/10/25 11:46:03;;;;;;;;;;;;;;;;;;5005919;28;5026;-63
2023/10/25 11:48:29;;;;;;;;;;;;;;;;;;5007881;28;4952;-63
2023/10/25 11:50:54;;;;;;;;;;;;;;;;;;5032071;28;5027;-63
2023/10/25 11:56:22;;;;;;;;;;;;;;;;;;5021034;28;4612;-64
2023/10/25 11:58:48;;;;;;;;;;;;;;;;;;5035370;28;4455;-63
2023/10/25 12:01:13;;;;;;;;;;;;;;;;;;5024847;28;4858;-63
2023/10/25 12:03:40;;;;;;;;;;;;;;;;;;5013623;28;4948;-63
2023/10/25 12:06:06;;;;;;;;;;;;;;;;;;5034360;28;5131;-61
2023/10/25 12:08:31;;;;;;;;;;;;;;;;;;5024616;28;3612;-61
2023/10/25 12:10:56;;;;;;;;;;;;;;;;;;5014903;28;5011;-60
2023/10/25 12:16:24;;;;;;;;;;;;;;;;;;5015888;28;4458;-63
2023/10/25 12:18:49;;;;;;;;;;;;;;;;;;5014627;28;4995;-62
2023/10/25 12:21:15;;;;;;;;;;;;;;;;;;5006711;28;5141;-62
2023/10/25 12:23:40;;;;;;;;;;;;;;;;;;5025331;28;1260;-62
2023/10/25 12:26:09;;;;;;;;;;;;;;;;;;5009482;28;5245;-62
2023/10/25 12:28:34;;;;;;;;;;;;;;;;;;5024346;28;5051;-62
2023/10/25 12:31:00;;;;;;;;;;;;;;;;;;5015118;28;4996;-61
2023/10/25 12:33:26;;;;;;;;;;;;;;;;;;5028622;28;5164;-63
2023/10/25 12:35:51;;;;;;;;;;;;;;;;;;5014301;28;5266;-62
2023/10/25 12:38:17;;;;;;;;;;;;;;;;;;5004637;28;1978;-62
2023/10/25 12:40:43;;;;;;;;;;;;;;;;;;5010729;28;4527;-62
2023/10/25 12:43:09;;;;;;;;;;;;;;;;;;5014078;28;5112;-62
2023/10/25 12:45:35;;;;;;;;;;;;;;;;;;5016247;28;4467;-63
2023/10/25 12:53:54;;;;;;;;;;;;;;;;;;5004381;28;5108;-61
2023/10/25 12:56:19;;;;;;;;;;;;;;;;;;5013286;28;989;-62
2023/10/25 12:58:45;;;;;;;;;;;;;;;;;;5011329;28;4995;-62
2023/10/25 13:01:10;;;;;;;;;;;;;;;;;;5010382;28;4652;-60
2023/10/25 13:03:35;;;;;;;;;;;;;;;;;;5003598;28;5019;-62
2023/10/25 13:06:11;;;;;;;;;;;;;;;;;;5013096;28;5050;-61
2023/10/25 13:08:36;;;;;;;;;;;;;;;;;;5016821;28;1133;-62
2023/10/25 13:11:02;;;;;;;;;;;;;;;;;;5013489;28;4954;-61
2023/10/25 13:13:28;;;;;;;;;;;;;;;;;;5012437;28;4930;-61
2023/10/25 13:15:53;;;;;;;;;;;;;;;;;;5022991;28;4550;-61
2023/10/25 13:18:18;;;;;;;;;;;;;;;;;;5027659;28;5084;-62
2023/10/25 13:20:44;;;;;;;;;;;;;;;;;;5018241;28;1179;-62
2023/10/25 13:23:09;;;;;;;;;;;;;;;;;;5008256;28;5014;-62
2023/10/25 13:25:35;;;;;;;;;;;;;;;;;;5022571;28;5154;-62
2023/10/25 13:28:00;;;;;;;;;;;;;;;;;;5027633;28;5047;-62
2023/10/25 13:30:26;;;;;;;;;;;;;;;;;;5046053;28;5033;-62
2023/10/25 13:32:51;;;;;;;;;;;;;;;;;;5001028;28;4625;-61
2023/10/25 13:35:16;;;;;;;;;;;;;;;;;;5020352;28;1217;-62
2023/10/25 13:37:42;;;;;;;;;;;;;;;;;;5023340;28;4960;-62
2023/10/25 13:40:07;;;;;;;;;;;;;;;;;;5010917;28;4623;-61
2023/10/25 13:42:32;;;;;;;;;;;;;;;;;;5017184;28;5025;-62
2023/10/25 13:44:58;;;;;;;;;;;;;;;;;;5010306;28;4655;-62
2023/10/25 13:47:23;;;;;;;;;;;;;;;;;;5014121;28;1112;-62
2023/10/25 13:49:48;;;;;;;;;;;;;;;;;;5000431;28;4442;-63
2023/10/25 13:52:13;;;;;;;;;;;;;;;;;;5021786;28;5217;-61
2023/10/25 13:54:39;;;;;;;;;;;;;;;;;;5017450;28;5234;-63
2023/10/25 13:57:05;;;;;;;;;;;;;;;;;;5029744;28;5008;-62
2023/10/25 14:02:32;;;;;;;;;;;;;;;;;;5037891;28;4761;-63
2023/10/25 14:08:01;;;;;;;;;;;;;;;;;;5036797;28;5055;-62
2023/10/25 14:10:26;;;;;;;;;;;;;;;;;;5036269;28;4461;-62
2023/10/25 14:12:52;;;;;;;;;;;;;;;;;;5037115;28;4987;-62
2023/10/25 14:15:18;;;;;;;;;;;;;;;;;;5036094;28;5062;-62
2023/10/25 14:20:45;;;;;;;;;;;;;;;;;;5037223;28;5210;-61
2023/10/25 14:23:11;;;;;;;;;;;;;;;;;;5037127;28;1084;-62
2023/10/25 14:25:40;;;;;;;;;;;;;;;;;;5037003;28;1081;-62
2023/10/25 14:28:09;;;;;;;;;;;;;;;;;;5052761;28;1489;-62
2023/10/25 14:39:45;;;;;;;;;;;;;;;;;;5036428;28;4738;-61
2023/10/25 14:42:11;;;;;;;;;;;;;;;;;;5036140;28;4806;-60
2023/10/25 14:44:36;;;;;;;;;;;;;;;;;;5036372;28;1067;-61
2023/10/25 14:47:03;;;;;;;;;;;;;;;;;;5031419;28;5004;-61
2023/10/25 14:49:30;;;;;;;;;;;;;;;;;;5024703;28;5199;-61
2023/10/25 14:51:55;;;;;;;;;;;;;;;;;;5044529;28;4999;-64
2023/10/25 14:54:21;;;;;;;;;;;;;;;;;;5011837;28;5141;-66
2023/10/25 14:56:46;;;;;;;;;;;;;;;;;;5007511;28;3205;-65
2023/10/25 14:59:11;;;;;;;;;;;;;;;;;;5014767;28;5097;-65
2023/10/25 15:01:36;;;;;;;;;;;;;;;;;;5007096;28;4699;-63
2023/10/25 15:04:02;;;;;;;;;;;;;;;;;;5009713;28;5092;-64
2023/10/25 15:06:28;;;;;;;;;;;;;;;;;;5013103;28;5073;-65
2023/10/25 15:08:53;;;;;;;;;;;;;;;;;;5001774;28;4496;-64
2023/10/25 15:11:19;;;;;;;;;;;;;;;;;;5014847;28;2874;-65
2023/10/25 15:13:44;;;;;;;;;;;;;;;;;;5014939;28;5075;-64
2023/10/25 15:16:09;;;;;;;;;;;;;;;;;;5020227;28;4484;-64
2023/10/25 15:18:35;;;;;;;;;;;;;;;;;;5016854;28;4479;-64
2023/10/25 15:21:01;;;;;;;;;;;;;;;;;;5035322;28;5042;-65
2023/10/25 15:23:35;;;;;;;;;;;;;;;;;;5030829;28;2791;-62
2023/10/25 15:35:09;;;;;;;;;;;;;;;;;;5025765;28;5136;-63
2023/10/25 15:37:34;;;;;;;;;;;;;;;;;;5002592;28;5139;-63
2023/10/25 15:40:00;;;;;;;;;;;;;;;;;;5013245;28;5035;-63
2023/10/25 15:45:53;;;;;;;;;;;;;;;;;;5011780;28;5155;-63
2023/10/25 15:48:18;;;;;;;;;;;;;;;;;;5018807;28;4465;-63
2023/10/25 15:50:43;;;;;;;;;;;;;;;;;;5017258;28;1252;-63
2023/10/25 15:53:09;;;;;;;;;;;;;;;;;;5030135;28;4819;-64
2023/10/25 15:56:00;;;;;;;;;;;;;;;;;;5012137;28;4935;-63
2023/10/25 15:58:25;;;;;;;;;;;;;;;;;;5017617;28;5020;-64
2023/10/25 16:00:51;;;;;;;;;;;;;;;;;;5011411;28;5090;-63
2023/10/25 16:03:16;;;;;;;;;;;;;;;;;;5027429;28;4451;-63
2023/10/25 16:05:42;;;;;;;;;;;;;;;;;;5028743;28;1069;-63
2023/10/25 16:08:07;;;;;;;;;;;;;;;;;;5012786;28;4946;-64
2023/10/25 16:16:56;;;;;;;;;;;;;;;;;;5034645;28;5085;-62
2023/10/25 16:19:24;;;;;;;;;;;;;;;;;;5015002;28;5098;-62
2023/10/25 16:21:49;;;;;;;;;;;;;;;;;;5006939;28;5058;-61
2023/10/25 16:24:15;;;;;;;;;;;;;;;;;;5012879;28;4925;-68
2023/10/25 16:29:44;;;;;;;;;;;;;;;;;;5035330;28;4897;-61
2023/10/25 16:32:20;;;;;;;;;;;;;;;;;;5018443;28;4579;-61
2023/10/25 16:35:22;;;;;;;;;;;;;;;;;;5012957;28;4904;-61
2023/10/25 16:37:51;;;;;;;;;;;;;;;;;;5009436;28;4644;-61
2023/10/25 16:40:17;;;;;;;;;;;;;;;;;;5025483;28;4643;-61
2023/10/25 16:42:43;;;;;;;;;;;;;;;;;;5010407;28;4468;-61
2023/10/25 16:48:00;;;;;;;;;;;;;;;;;;5015838;28;4977;-61
2023/10/25 16:50:26;;;;;;;;;;;;;;;;;;5009619;28;1065;-61
2023/10/25 16:52:52;;;;;;;;;;;;;;;;;;5007878;28;4623;-60
2023/10/25 17:10:18;;;;;;;;;;;;;;;;;;5012563;28;4603;-60
2023/10/25 17:12:43;;;;;;;;;;;;;;;;;;5014204;28;4860;-61
2023/10/25 17:15:09;;;;;;;;;;;;;;;;;;5015580;28;5356;-61
2023/10/25 17:17:34;;;;;;;;;;;;;;;;;;5014023;28;1910;-60
2023/10/25 17:19:59;;;;;;;;;;;;;;;;;;5007242;28;4972;-61
2023/10/25 17:22:25;;;;;;;;;;;;;;;;;;5005985;28;4631;-60
2023/10/25 17:24:50;;;;;;;;;;;;;;;;;;5005544;28;5048;-61
2023/10/25 17:27:15;;;;;;;;;;;;;;;;;;5011629;28;5091;-60
2023/10/25 17:29:40;;;;;;;;;;;;;;;;;;5004579;28;4607;-64
2023/10/25 17:32:06;;;;;;;;;;;;;;;;;;5005508;28;4619;-60
2023/10/25 17:34:32;;;;;;;;;;;;;;;;;;5012781;28;4678;-61
2023/10/25 17:36:57;;;;;;;;;;;;;;;;;;4990983;28;5208;-62
2023/10/25 17:39:24;;;;;;;;;;;;;;;;;;5015478;28;4495;-60
2023/10/25 17:41:49;;;;;;;;;;;;;;;;;;5019544;28;4492;-60
2023/10/25 17:47:17;;;;;;;;;;;;;;;;;;5037928;28;4585;-59
2023/10/25 17:49:43;;;;;;;;;;;;;;;;;;5016459;28;4431;-60
2023/10/25 17:52:08;;;;;;;;;;;;;;;;;;5014591;28;5081;-59
2023/10/25 17:54:33;;;;;;;;;;;;;;;;;;5032315;28;4840;-69
2023/10/25 18:03:23;;;;;;;;;;;;;;;;;;5014829;28;5150;-60
2023/10/25 18:08:52;;;;;;;;;;;;;;;;;;5011780;28;5169;-59
2023/10/25 18:11:24;;;;;;;;;;;;;;;;;;4997925;28;1340;-60
2023/10/25 18:13:51;;;;;;;;;;;;;;;;;;5017086;28;4952;-59
2023/10/25 18:16:33;;;;;;;;;;;;;;;;;;5042391;28;4644;-60
2023/10/25 18:18:59;;;;;;;;;;;;;;;;;;5017998;28;5133;-59
2023/10/25 18:21:24;;;;;;;;;;;;;;;;;;5008658;28;4487;-60
2023/10/25 18:23:49;;;;;;;;;;;;;;;;;;5008773;28;5026;-61
2023/10/25 18:26:17;;;;;;;;;;;;;;;;;;5018890;28;1084;-60
2023/10/25 18:28:43;;;;;;;;;;;;;;;;;;5010097;28;4848;-63
2023/10/25 18:31:16;;;;;;;;;;;;;;;;;;5024990;28;4657;-60
2023/10/25 18:33:41;;;;;;;;;;;;;;;;;;5012264;28;5284;-60
2023/10/25 18:36:07;;;;;;;;;;;;;;;;;;5014221;28;5132;-60
2023/10/25 18:38:32;;;;;;;;;;;;;;;;;;5009643;28;1914;-60
2023/10/25 18:40:58;;;;;;;;;;;;;;;;;;4996369;28;5026;-60
2023/10/25 18:43:24;;;;;;;;;;;;;;;;;;5013356;28;4958;-60
2023/10/25 18:45:53;;;;;;;;;;;;;;;;;;5030454;28;5335;-59
2023/10/25 18:51:53;;;;;;;;;;;;;;;;;;5011167;28;4638;-60
2023/10/25 18:54:19;;;;;;;;;;;;;;;;;;5015958;28;5658;-60
2023/10/25 18:56:44;;;;;;;;;;;;;;;;;;5017020;28;1158;-60
2023/10/25 18:59:10;;;;;;;;;;;;;;;;;;5012410;28;5061;-61
2023/10/25 19:01:37;;;;;;;;;;;;;;;;;;5011607;28;5135;-60
2023/10/25 19:04:03;;;;;;;;;;;;;;;;;;5009482;28;5047;-68
2023/10/25 19:06:28;;;;;;;;;;;;;;;;;;5010747;28;4593;-60
2023/10/25 19:09:03;;;;;;;;;;;;;;;;;;5010363;28;4459;-60
2023/10/25 19:11:30;;;;;;;;;;;;;;;;;;5028036;28;1121;-61
2023/10/25 19:14:03;;;;;;;;;;;;;;;;;;5011811;28;4458;-60
2023/10/25 19:16:29;;;;;;;;;;;;;;;;;;5009035;28;5076;-59
2023/10/25 19:18:55;;;;;;;;;;;;;;;;;;5018286;28;4946;-60
2023/10/25 19:24:23;;;;;;;;;;;;;;;;;;5015959;28;4583;-59
2023/10/25 19:30:00;;;;;;;;;;;;;;;;;;5015868;28;4452;-60
2023/10/25 19:35:28;;;;;;;;;;;;;;;;;;5016480;28;4578;-59
2023/10/25 19:41:16;;;;;;;;;;;;;;;;;;5055940;28;4653;-60
2023/10/25 19:43:41;;;;;;;;;;;;;;;;;;5037642;28;4998;-60
2023/10/25 19:46:06;;;;;;;;;;;;;;;;;;5032588;28;4797;-59
2023/10/25 19:48:32;;;;;;;;;;;;;;;;;;5035111;28;5059;-60
2023/10/25 19:53:59;;;;;;;;;;;;;;;;;;5035406;28;4984;-60
2023/10/25 19:59:27;;;;;;;;;;;;;;;;;;5035728;28;4737;-60
2023/10/25 20:01:53;;;;;;;;;;;;;;;;;;5035107;28;4419;-60
2023/10/25 20:04:18;;;;;;;;;;;;;;;;;;5050628;28;5163;-60
2023/10/25 20:06:44;;;;;;;;;;;;;;;;;;5034831;28;4998;-59
2023/10/25 20:12:12;;;;;;;;;;;;;;;;;;5035005;28;5000;-62
2023/10/25 20:14:37;;;;;;;;;;;;;;;;;;5035367;28;1073;-61
2023/10/25 20:17:04;;;;;;;;;;;;;;;;;;5035121;28;4436;-63
2023/10/25 20:19:29;;;;;;;;;;;;;;;;;;5016625;28;5227;-58
2023/10/25 20:24:57;;;;;;;;;;;;;;;;;;5034830;28;5011;-57
2023/10/25 20:30:48;;;;;;;;;;;;;;;;;;5034843;28;4655;-57
2023/10/25 20:33:14;;;;;;;;;;;;;;;;;;5034161;28;4453;-58
2023/10/25 20:35:40;;;;;;;;;;;;;;;;;;5015839;28;2882;-58
2023/10/25 20:38:11;;;;;;;;;;;;;;;;;;5013121;28;5014;-58
2023/10/25 20:40:53;;;;;;;;;;;;;;;;;;5014904;28;4909;-58
2023/10/25 20:43:18;;;;;;;;;;;;;;;;;;5006992;28;4500;-58
2023/10/25 20:45:53;;;;;;;;;;;;;;;;;;5034312;28;5105;-57
2023/10/25 20:54:24;;;;;;;;;;;;;;;;;;5034282;28;5322;-58
2023/10/25 20:56:50;;;;;;;;;;;;;;;;;;5034378;28;5005;-57
2023/10/25 20:59:15;;;;;;;;;;;;;;;;;;5034763;28;1981;-57
2023/10/25 21:01:40;;;;;;;;;;;;;;;;;;5034134;28;4591;-57
2023/10/25 21:07:08;;;;;;;;;;;;;;;;;;5034133;28;4409;-57
2023/10/25 21:09:34;;;;;;;;;;;;;;;;;;5034155;28;5004;-58
2023/10/25 21:12:00;;;;;;;;;;;;;;;;;;5015187;28;4464;-58
2023/10/25 21:14:25;;;;;;;;;;;;;;;;;;5039913;28;2939;-58
2023/10/25 21:16:50;;;;;;;;;;;;;;;;;;5034377;28;4947;-58
2023/10/25 21:19:15;;;;;;;;;;;;;;;;;;5033714;28;4458;-58
2023/10/25 21:21:41;;;;;;;;;;;;;;;;;;5034171;28;4407;-58
2023/10/25 21:24:06;;;;;;;;;;;;;;;;;;5033885;28;5219;-58
2023/10/25 21:29:35;;;;;;;;;;;;;;;;;;5035061;28;5462;-58
2023/10/25 21:38:31;;;;;;;;;;;;;;;;;;5029815;28;4574;-57
2023/10/25 21:41:04;;;;;;;;;;;;;;;;;;5033438;28;5087;-58
2023/10/25 21:43:29;;;;;;;;;;;;;;;;;;5016146;28;4427;-58
2023/10/25 21:45:55;;;;;;;;;;;;;;;;;;5033974;28;4421;-58
2023/10/25 21:48:21;;;;;;;;;;;;;;;;;;5033626;28;5550;-58
2023/10/25 21:50:52;;;;;;;;;;;;;;;;;;5049791;28;1046;-58
2023/10/25 21:53:17;;;;;;;;;;;;;;;;;;5015306;28;4997;-57
2023/10/25 21:55:42;;;;;;;;;;;;;;;;;;5033986;28;4655;-58
2023/10/25 21:58:07;;;;;;;;;;;;;;;;;;5034034;28;4451;-57